Terminal Aerodrome Forecast
Issued by NWS Pueblo, CO

Home | Current Version | Previous Version | Text Only | Print | Product List | Glossary On
Versions: 1 2 3 4 5 6 7 8 9 10 11 12 13 14 15 16 17 18 19 20 21 22 23 24 25 26 27 28 29 30 31 32 33 34 35 36 37 38 39 40 41 42 43 44
000
FTUS45 KPUB 302320
TAFCOS
TAF
KCOS 302320Z 3100/3124 15010KT P6SM VCTS SCT040CB BKN100
     FM310300 10006KT P6SM SCT080 SCT120
     FM310600 36006KT P6SM FEW120 SCT150
     FM311800 18010KT P6SM FEW080 BKN120=

USA.gov is the U.S. government's official web portal to all federal, state and local government web resources and services.